Terminal Aerodrome Forecast
Issued by NWS Raleigh/Durham, NC

Home | Current Version | Previous Version | Text Only | Print | Product List | Glossary On
Versions: 1 2 3 4 5 6 7 8 9 10 11 12 13 14 15 16 17 18 19 20 21 22 23 24 25 26 27 28 29 30 31 32 33 34 35 36 37 38 39 40 41 42 43 44 45
000
FTUS42 KRAH 251739
TAFGSO
TAF
KGSO 251739Z 2518/2618 08006KT 5SM BR OVC007
     FM260000 08008KT 4SM BR OVC004
      TEMPO 2603/2606 2SM -DZ BR OVC004
     FM260900 11005KT 1 1/2SM -DZ BR OVC002=

USA.gov is the U.S. government's official web portal to all federal, state and local government web resources and services.